Blackstone River @ Millbury, Ma

Blackstone River at Millbury
 Total Drainage Area: 71 sq. miles 
 Drainage Area Controlled by Corps Dams: 0 sq. miles (0%) 
 Warning Flow/Stage: 720 cfs / 4.0 feet 
 Flood Flow/Stage: 1,970 cfs / 6.5 feet 
Date Time
(Eastern)
Stage
(ft)
Flow
(cfs)
CSM
(cfs / sq. mi.)
Jan-31 02:00 pm 2.82 321 4.5
Jan-31 01:00 pm 2.83 325 4.6
Jan-31 12:00 pm 2.83 325 4.6
Jan-31 11:00 am 2.83 325 4.6
Jan-31 10:00 am 2.81 317 4.5
Jan-31 09:00 am 2.80 314 4.4
Jan-31 08:00 am 2.79 310 4.4
Jan-31 07:00 am 2.78 306 4.3
Jan-31 06:00 am 2.79 310 4.4
Jan-31 05:00 am 2.79 310 4.4
Jan-31 04:00 am 2.80 314 4.4
Jan-31 03:00 am 2.81 317 4.5
Jan-31 02:00 am 2.83 325 4.6
Jan-31 01:00 am 2.85 333 4.7
Jan-31 12:00 am 2.86 337 4.7
Jan-30 11:00 pm 2.87 341 4.8
Jan-30 10:00 pm 2.87 341 4.8
Jan-30 09:00 pm 2.88 345 4.9
Jan-30 08:00 pm 2.87 341 4.8
Jan-30 07:00 pm 2.87 341 4.8
Jan-30 06:00 pm 2.88 345 4.9
Jan-30 05:00 pm 2.88 345 4.9
Jan-30 04:00 pm 2.89 349 4.9
Jan-30 03:00 pm 2.89 349 4.9
Jan-30 02:00 pm 2.89 349 4.9
Report Generated January 31, 2023 02:39 pm